sensor_id;sensor_type;location;lat;lon;timestamp;pressure;altitude;pressure_sealevel;temperature;humidity
41306;BME280;27051;50.376;19.152;2023-07-31T00:01:34;97737.16;;;18.89;65.89
41306;BME280;27051;50.376;19.152;2023-07-31T00:04:01;97744.58;;;18.87;66.13
41306;BME280;27051;50.376;19.152;2023-07-31T00:06:30;97751.40;;;18.90;66.10
41306;BME280;27051;50.376;19.152;2023-07-31T00:08:56;97756.17;;;18.86;66.39
41306;BME280;27051;50.376;19.152;2023-07-31T00:11:35;97757.31;;;18.81;66.53
41306;BME280;27051;50.376;19.152;2023-07-31T00:14:02;97757.67;;;18.73;66.60
41306;BME280;27051;50.376;19.152;2023-07-31T00:16:32;97755.45;;;18.67;66.77
41306;BME280;27051;50.376;19.152;2023-07-31T00:21:35;97752.27;;;18.66;66.96
41306;BME280;27051;50.376;19.152;2023-07-31T00:24:01;97756.43;;;18.72;66.82
41306;BME280;27051;50.376;19.152;2023-07-31T00:26:28;97759.78;;;18.70;67.10
41306;BME280;27051;50.376;19.152;2023-07-31T00:28:57;97759.17;;;18.68;67.14
41306;BME280;27051;50.376;19.152;2023-07-31T00:31:24;97759.73;;;18.67;66.99
41306;BME280;27051;50.376;19.152;2023-07-31T00:33:51;97758.88;;;18.55;67.42
41306;BME280;27051;50.376;19.152;2023-07-31T00:36:17;97763.95;;;18.52;67.39
41306;BME280;27051;50.376;19.152;2023-07-31T00:38:47;97762.89;;;18.50;67.47
41306;BME280;27051;50.376;19.152;2023-07-31T00:41:13;97770.23;;;18.54;67.62
41306;BME280;27051;50.376;19.152;2023-07-31T00:43:40;97775.77;;;18.53;67.42
41306;BME280;27051;50.376;19.152;2023-07-31T00:46:07;97776.34;;;18.49;67.49
41306;BME280;27051;50.376;19.152;2023-07-31T00:48:38;97772.77;;;18.49;67.62
41306;BME280;27051;50.376;19.152;2023-07-31T00:51:15;97775.14;;;18.43;67.73
41306;BME280;27051;50.376;19.152;2023-07-31T00:54:11;97776.63;;;18.40;67.73
41306;BME280;27051;50.376;19.152;2023-07-31T00:56:40;97772.69;;;18.37;68.07
41306;BME280;27051;50.376;19.152;2023-07-31T00:59:24;97778.78;;;18.43;67.90
41306;BME280;27051;50.376;19.152;2023-07-31T01:01:51;97777.86;;;18.43;68.03
41306;BME280;27051;50.376;19.152;2023-07-31T01:04:18;97782.84;;;18.42;68.07
41306;BME280;27051;50.376;19.152;2023-07-31T01:12:23;97773.42;;;18.31;67.98
41306;BME280;27051;50.376;19.152;2023-07-31T01:15:07;97777.23;;;18.31;67.98
41306;BME280;27051;50.376;19.152;2023-07-31T01:17:34;97782.34;;;18.34;67.97
41306;BME280;27051;50.376;19.152;2023-07-31T01:20:05;97783.29;;;18.31;67.82
41306;BME280;27051;50.376;19.152;2023-07-31T01:25:21;97791.65;;;18.22;67.88
41306;BME280;27051;50.376;19.152;2023-07-31T01:31:06;97789.59;;;18.00;68.03
41306;BME280;27051;50.376;19.152;2023-07-31T01:33:34;97791.56;;;17.94;67.85
41306;BME280;27051;50.376;19.152;2023-07-31T01:36:06;97789.55;;;17.93;67.96
41306;BME280;27051;50.376;19.152;2023-07-31T01:38:37;97790.06;;;17.97;67.99
41306;BME280;27051;50.376;19.152;2023-07-31T01:41:03;97797.76;;;17.98;68.11
41306;BME280;27051;50.376;19.152;2023-07-31T01:43:30;97794.27;;;17.95;67.87
41306;BME280;27051;50.376;19.152;2023-07-31T01:45:56;97796.70;;;17.91;67.98
41306;BME280;27051;50.376;19.152;2023-07-31T01:48:23;97798.29;;;17.81;68.17
41306;BME280;27051;50.376;19.152;2023-07-31T01:50:50;97799.14;;;17.77;68.13
41306;BME280;27051;50.376;19.152;2023-07-31T01:53:16;97795.48;;;17.75;68.32
41306;BME280;27051;50.376;19.152;2023-07-31T01:55:43;97795.65;;;17.79;68.32
41306;BME280;27051;50.376;19.152;2023-07-31T01:58:09;97794.95;;;17.73;68.28
41306;BME280;27051;50.376;19.152;2023-07-31T02:00:36;97802.41;;;17.71;68.45
41306;BME280;27051;50.376;19.152;2023-07-31T02:03:05;97807.24;;;17.67;68.41
41306;BME280;27051;50.376;19.152;2023-07-31T02:05:32;97809.45;;;17.59;68.54
41306;BME280;27051;50.376;19.152;2023-07-31T02:07:58;97810.83;;;17.60;68.67
41306;BME280;27051;50.376;19.152;2023-07-31T02:10:25;97813.79;;;17.58;68.65
41306;BME280;27051;50.376;19.152;2023-07-31T02:12:52;97818.83;;;17.59;68.84
41306;BME280;27051;50.376;19.152;2023-07-31T02:15:18;97816.80;;;17.59;68.81
41306;BME280;27051;50.376;19.152;2023-07-31T02:17:45;97817.68;;;17.54;68.76
41306;BME280;27051;50.376;19.152;2023-07-31T02:20:21;97817.75;;;17.53;68.91
41306;BME280;27051;50.376;19.152;2023-07-31T02:22:47;97819.54;;;17.51;68.74
41306;BME280;27051;50.376;19.152;2023-07-31T02:25:14;97815.60;;;17.44;69.15
41306;BME280;27051;50.376;19.152;2023-07-31T02:27:41;97814.73;;;17.44;69.08
41306;BME280;27051;50.376;19.152;2023-07-31T02:30:08;97816.84;;;17.47;69.04
41306;BME280;27051;50.376;19.152;2023-07-31T02:32:35;97826.21;;;17.56;68.91
41306;BME280;27051;50.376;19.152;2023-07-31T02:35:02;97829.32;;;17.58;69.02
41306;BME280;27051;50.376;19.152;2023-07-31T02:37:28;97834.60;;;17.54;68.87
41306;BME280;27051;50.376;19.152;2023-07-31T02:39:55;97839.48;;;17.54;68.97
41306;BME280;27051;50.376;19.152;2023-07-31T02:42:43;97840.83;;;17.51;69.22
41306;BME280;27051;50.376;19.152;2023-07-31T02:45:08;97848.89;;;17.52;68.99
41306;BME280;27051;50.376;19.152;2023-07-31T02:47:35;97847.17;;;17.59;69.31
41306;BME280;27051;50.376;19.152;2023-07-31T02:50:03;97854.98;;;17.70;69.08
41306;BME280;27051;50.376;19.152;2023-07-31T02:52:29;97854.52;;;17.75;69.13
41306;BME280;27051;50.376;19.152;2023-07-31T02:54:57;97853.98;;;17.79;68.95
41306;BME280;27051;50.376;19.152;2023-07-31T02:57:24;97856.07;;;17.83;69.01
41306;BME280;27051;50.376;19.152;2023-07-31T02:59:53;97852.33;;;17.76;69.15
41306;BME280;27051;50.376;19.152;2023-07-31T03:02:19;97855.91;;;17.83;69.18
41306;BME280;27051;50.376;19.152;2023-07-31T03:04:46;97854.27;;;17.87;69.03
41306;BME280;27051;50.376;19.152;2023-07-31T03:07:13;97858.69;;;17.94;68.86
41306;BME280;27051;50.376;19.152;2023-07-31T03:09:39;97863.10;;;17.96;68.85
41306;BME280;27051;50.376;19.152;2023-07-31T03:12:06;97858.98;;;17.96;68.91
41306;BME280;27051;50.376;19.152;2023-07-31T03:14:44;97854.88;;;17.94;68.74
41306;BME280;27051;50.376;19.152;2023-07-31T03:17:10;97855.45;;;17.84;68.99
41306;BME280;27051;50.376;19.152;2023-07-31T03:19:37;97859.16;;;17.88;69.00
41306;BME280;27051;50.376;19.152;2023-07-31T03:22:04;97859.46;;;17.89;68.95
41306;BME280;27051;50.376;19.152;2023-07-31T03:24:31;97865.82;;;17.97;68.92
41306;BME280;27051;50.376;19.152;2023-07-31T03:27:18;97865.73;;;17.96;68.87
41306;BME280;27051;50.376;19.152;2023-07-31T03:29:44;97863.42;;;17.91;68.76
41306;BME280;27051;50.376;19.152;2023-07-31T03:32:11;97869.41;;;17.91;68.83
41306;BME280;27051;50.376;19.152;2023-07-31T03:34:38;97869.65;;;17.90;69.07
41306;BME280;27051;50.376;19.152;2023-07-31T03:37:05;97874.98;;;17.94;68.74
41306;BME280;27051;50.376;19.152;2023-07-31T03:39:31;97876.00;;;17.94;68.73
41306;BME280;27051;50.376;19.152;2023-07-31T03:42:01;97885.84;;;18.00;68.74
41306;BME280;27051;50.376;19.152;2023-07-31T03:44:28;97884.75;;;18.02;68.73
41306;BME280;27051;50.376;19.152;2023-07-31T03:46:54;97884.05;;;18.03;68.80
41306;BME280;27051;50.376;19.152;2023-07-31T03:49:21;97883.52;;;18.02;68.73
41306;BME280;27051;50.376;19.152;2023-07-31T03:51:47;97874.52;;;17.94;68.75
41306;BME280;27051;50.376;19.152;2023-07-31T03:54:14;97877.78;;;17.95;68.68
41306;BME280;27051;50.376;19.152;2023-07-31T03:56:40;97877.25;;;17.92;68.66
41306;BME280;27051;50.376;19.152;2023-07-31T03:59:07;97875.98;;;18.00;68.69
41306;BME280;27051;50.376;19.152;2023-07-31T04:01:34;97877.21;;;18.04;68.61
41306;BME280;27051;50.376;19.152;2023-07-31T04:04:02;97876.81;;;18.04;68.42
41306;BME280;27051;50.376;19.152;2023-07-31T04:06:29;97874.27;;;18.02;68.27
41306;BME280;27051;50.376;19.152;2023-07-31T04:08:55;97876.69;;;18.00;68.47
41306;BME280;27051;50.376;19.152;2023-07-31T04:11:22;97873.50;;;17.98;68.50
41306;BME280;27051;50.376;19.152;2023-07-31T04:13:49;97877.37;;;18.05;68.55
41306;BME280;27051;50.376;19.152;2023-07-31T04:16:17;97878.04;;;18.09;68.30
41306;BME280;27051;50.376;19.152;2023-07-31T04:18:44;97880.73;;;18.17;68.23
41306;BME280;27051;50.376;19.152;2023-07-31T04:21:10;97883.19;;;18.28;68.16
41306;BME280;27051;50.376;19.152;2023-07-31T04:23:37;97889.68;;;18.35;68.06
41306;BME280;27051;50.376;19.152;2023-07-31T04:26:07;97886.41;;;18.37;67.82
41306;BME280;27051;50.376;19.152;2023-07-31T04:28:34;97893.39;;;18.41;67.90
41306;BME280;27051;50.376;19.152;2023-07-31T04:31:00;97890.91;;;18.39;67.82
41306;BME280;27051;50.376;19.152;2023-07-31T04:33:27;97895.94;;;18.43;67.80
41306;BME280;27051;50.376;19.152;2023-07-31T04:35:56;97896.31;;;18.48;67.90
41306;BME280;27051;50.376;19.152;2023-07-31T04:38:23;97897.42;;;18.61;67.63
41306;BME280;27051;50.376;19.152;2023-07-31T04:40:50;97897.53;;;18.68;67.38
41306;BME280;27051;50.376;19.152;2023-07-31T04:43:16;97895.17;;;18.73;67.35
41306;BME280;27051;50.376;19.152;2023-07-31T04:45:45;97895.56;;;18.75;67.06
41306;BME280;27051;50.376;19.152;2023-07-31T04:48:11;97906.15;;;18.73;66.88
41306;BME280;27051;50.376;19.152;2023-07-31T04:50:38;97899.11;;;18.64;67.10
41306;BME280;27051;50.376;19.152;2023-07-31T04:53:07;97897.15;;;18.68;67.12
41306;BME280;27051;50.376;19.152;2023-07-31T04:55:36;97897.13;;;18.76;66.90
41306;BME280;27051;50.376;19.152;2023-07-31T04:58:02;97895.83;;;18.84;66.82
41306;BME280;27051;50.376;19.152;2023-07-31T05:00:29;97892.55;;;18.87;66.68
41306;BME280;27051;50.376;19.152;2023-07-31T05:02:56;97897.73;;;18.92;66.72
41306;BME280;27051;50.376;19.152;2023-07-31T05:05:22;97896.09;;;18.94;66.54
41306;BME280;27051;50.376;19.152;2023-07-31T05:07:49;97894.92;;;18.91;66.33
41306;BME280;27051;50.376;19.152;2023-07-31T05:10:15;97892.37;;;18.78;66.40
41306;BME280;27051;50.376;19.152;2023-07-31T05:12:42;97894.33;;;18.75;66.31
41306;BME280;27051;50.376;19.152;2023-07-31T05:15:09;97900.39;;;18.71;66.33
41306;BME280;27051;50.376;19.152;2023-07-31T05:17:36;97903.96;;;18.74;66.43
41306;BME280;27051;50.376;19.152;2023-07-31T05:20:02;97903.35;;;18.75;66.28
41306;BME280;27051;50.376;19.152;2023-07-31T05:22:32;97903.89;;;18.77;66.46
41306;BME280;27051;50.376;19.152;2023-07-31T05:24:58;97903.84;;;18.83;66.12
41306;BME280;27051;50.376;19.152;2023-07-31T05:27:27;97909.92;;;18.83;66.05
41306;BME280;27051;50.376;19.152;2023-07-31T05:30:04;97912.39;;;18.87;65.81
41306;BME280;27051;50.376;19.152;2023-07-31T05:32:42;97910.95;;;18.79;65.83
41306;BME280;27051;50.376;19.152;2023-07-31T05:35:09;97911.24;;;18.82;66.08
41306;BME280;27051;50.376;19.152;2023-07-31T05:37:38;97914.16;;;18.89;65.89
41306;BME280;27051;50.376;19.152;2023-07-31T05:40:05;97915.64;;;18.99;65.77
41306;BME280;27051;50.376;19.152;2023-07-31T05:42:32;97914.25;;;19.10;65.67
41306;BME280;27051;50.376;19.152;2023-07-31T05:44:58;97918.08;;;19.21;65.37
41306;BME280;27051;50.376;19.152;2023-07-31T05:47:25;97916.01;;;19.27;65.17
41306;BME280;27051;50.376;19.152;2023-07-31T05:49:51;97917.20;;;19.33;65.13
41306;BME280;27051;50.376;19.152;2023-07-31T05:52:19;97919.09;;;19.40;64.84
41306;BME280;27051;50.376;19.152;2023-07-31T05:54:46;97916.27;;;19.50;65.14
41306;BME280;27051;50.376;19.152;2023-07-31T05:57:12;97912.85;;;19.59;65.07
41306;BME280;27051;50.376;19.152;2023-07-31T05:59:39;97916.17;;;19.75;64.74
41306;BME280;27051;50.376;19.152;2023-07-31T06:02:05;97916.27;;;19.89;64.33
41306;BME280;27051;50.376;19.152;2023-07-31T06:04:32;97923.57;;;19.98;64.21
41306;BME280;27051;50.376;19.152;2023-07-31T06:07:00;97921.73;;;20.04;63.89
41306;BME280;27051;50.376;19.152;2023-07-31T06:09:47;97922.33;;;20.05;63.83
41306;BME280;27051;50.376;19.152;2023-07-31T06:12:13;97919.33;;;20.09;63.73
41306;BME280;27051;50.376;19.152;2023-07-31T06:14:40;97916.98;;;20.09;63.42
41306;BME280;27051;50.376;19.152;2023-07-31T06:17:06;97916.45;;;20.08;63.58
41306;BME280;27051;50.376;19.152;2023-07-31T06:19:33;97916.91;;;20.08;63.31
41306;BME280;27051;50.376;19.152;2023-07-31T06:21:59;97920.48;;;20.10;63.39
41306;BME280;27051;50.376;19.152;2023-07-31T06:24:28;97915.42;;;20.09;63.41
41306;BME280;27051;50.376;19.152;2023-07-31T06:26:55;97911.88;;;20.12;63.17
41306;BME280;27051;50.376;19.152;2023-07-31T06:29:22;97913.92;;;20.19;62.96
41306;BME280;27051;50.376;19.152;2023-07-31T06:31:48;97907.90;;;20.20;62.59
41306;BME280;27051;50.376;19.152;2023-07-31T06:34:15;97909.63;;;20.19;62.44
41306;BME280;27051;50.376;19.152;2023-07-31T06:36:41;97906.07;;;20.17;62.43
41306;BME280;27051;50.376;19.152;2023-07-31T06:39:08;97910.00;;;20.21;62.38
41306;BME280;27051;50.376;19.152;2023-07-31T06:41:34;97904.88;;;20.25;62.28
41306;BME280;27051;50.376;19.152;2023-07-31T06:44:01;97903.80;;;20.31;62.12
41306;BME280;27051;50.376;19.152;2023-07-31T06:49:07;97902.44;;;20.39;62.14
41306;BME280;27051;50.376;19.152;2023-07-31T06:51:34;97905.75;;;20.50;61.88
41306;BME280;27051;50.376;19.152;2023-07-31T06:54:04;97907.23;;;20.57;61.51
41306;BME280;27051;50.376;19.152;2023-07-31T06:56:30;97906.45;;;20.64;61.31
41306;BME280;27051;50.376;19.152;2023-07-31T06:59:07;97906.49;;;20.72;61.01
41306;BME280;27051;50.376;19.152;2023-07-31T07:01:53;97911.13;;;20.80;61.00
41306;BME280;27051;50.376;19.152;2023-07-31T07:04:22;97910.23;;;20.90;60.98
41306;BME280;27051;50.376;19.152;2023-07-31T07:07:13;97907.70;;;20.91;60.46
41306;BME280;27051;50.376;19.152;2023-07-31T07:09:48;97911.39;;;21.01;60.49
41306;BME280;27051;50.376;19.152;2023-07-31T07:12:25;97912.36;;;21.19;60.22
41306;BME280;27051;50.376;19.152;2023-07-31T07:14:52;97908.41;;;21.33;59.67
41306;BME280;27051;50.376;19.152;2023-07-31T07:17:19;97911.28;;;21.40;59.09
41306;BME280;27051;50.376;19.152;2023-07-31T07:19:50;97910.48;;;21.47;59.14
41306;BME280;27051;50.376;19.152;2023-07-31T07:22:44;97908.05;;;21.56;59.22
41306;BME280;27051;50.376;19.152;2023-07-31T07:25:18;97907.59;;;21.69;58.61
41306;BME280;27051;50.376;19.152;2023-07-31T07:27:45;97908.30;;;21.81;58.32
41306;BME280;27051;50.376;19.152;2023-07-31T07:30:32;97909.21;;;21.87;58.17
41306;BME280;27051;50.376;19.152;2023-07-31T07:32:58;97906.80;;;21.95;57.58
41306;BME280;27051;50.376;19.152;2023-07-31T07:35:25;97903.06;;;22.00;57.71
41306;BME280;27051;50.376;19.152;2023-07-31T07:40:41;97908.92;;;22.25;57.38
41306;BME280;27051;50.376;19.152;2023-07-31T07:43:11;97907.96;;;22.38;57.08
41306;BME280;27051;50.376;19.152;2023-07-31T07:48:17;97908.13;;;22.60;56.46
41306;BME280;27051;50.376;19.152;2023-07-31T07:50:53;97906.88;;;22.74;56.25
41306;BME280;27051;50.376;19.152;2023-07-31T07:53:19;97910.09;;;22.92;55.77
41306;BME280;27051;50.376;19.152;2023-07-31T07:55:46;97913.05;;;23.01;54.85
41306;BME280;27051;50.376;19.152;2023-07-31T07:58:15;97910.95;;;23.07;54.64
41306;BME280;27051;50.376;19.152;2023-07-31T08:01:04;97912.33;;;23.23;55.00
41306;BME280;27051;50.376;19.152;2023-07-31T08:03:33;97914.50;;;23.30;54.13
41306;BME280;27051;50.376;19.152;2023-07-31T08:06:01;97913.63;;;23.27;53.99
41306;BME280;27051;50.376;19.152;2023-07-31T08:08:28;97916.34;;;23.28;53.94
41306;BME280;27051;50.376;19.152;2023-07-31T08:13:58;97918.95;;;23.46;53.70
41306;BME280;27051;50.376;19.152;2023-07-31T08:16:33;97918.10;;;23.55;52.75
41306;BME280;27051;50.376;19.152;2023-07-31T08:19:03;97920.41;;;23.57;52.65
41306;BME280;27051;50.376;19.152;2023-07-31T08:24:26;97922.20;;;23.67;52.53
41306;BME280;27051;50.376;19.152;2023-07-31T08:26:53;97923.88;;;23.66;52.12
41306;BME280;27051;50.376;19.152;2023-07-31T08:29:22;97928.05;;;23.69;51.34
41306;BME280;27051;50.376;19.152;2023-07-31T08:31:48;97922.39;;;23.63;51.39
41306;BME280;27051;50.376;19.152;2023-07-31T08:34:49;97926.95;;;23.69;51.12
41306;BME280;27051;50.376;19.152;2023-07-31T08:37:14;97922.33;;;23.73;50.94
41306;BME280;27051;50.376;19.152;2023-07-31T08:42:17;97924.54;;;23.99;50.36
41306;BME280;27051;50.376;19.152;2023-07-31T08:44:44;97922.29;;;24.16;50.27
41306;BME280;27051;50.376;19.152;2023-07-31T08:47:13;97926.86;;;24.15;50.13
41306;BME280;27051;50.376;19.152;2023-07-31T08:49:41;97931.08;;;24.13;49.74
41306;BME280;27051;50.376;19.152;2023-07-31T08:52:08;97925.34;;;24.15;49.97
41306;BME280;27051;50.376;19.152;2023-07-31T08:54:54;97922.86;;;24.26;50.08
41306;BME280;27051;50.376;19.152;2023-07-31T08:57:21;97917.06;;;24.46;49.93
41306;BME280;27051;50.376;19.152;2023-07-31T08:59:49;97914.94;;;24.68;48.98
41306;BME280;27051;50.376;19.152;2023-07-31T09:02:16;97912.27;;;24.89;48.20
41306;BME280;27051;50.376;19.152;2023-07-31T09:04:53;97909.34;;;25.08;47.86
41306;BME280;27051;50.376;19.152;2023-07-31T09:07:21;97910.38;;;25.33;47.74
41306;BME280;27051;50.376;19.152;2023-07-31T09:09:51;97906.35;;;25.59;47.81
41306;BME280;27051;50.376;19.152;2023-07-31T09:12:17;97907.05;;;25.89;46.73
41306;BME280;27051;50.376;19.152;2023-07-31T09:14:45;97907.73;;;26.03;46.68
41306;BME280;27051;50.376;19.152;2023-07-31T09:17:14;97907.16;;;26.12;46.65
41306;BME280;27051;50.376;19.152;2023-07-31T09:19:41;97906.81;;;25.95;46.18
41306;BME280;27051;50.376;19.152;2023-07-31T09:22:07;97903.38;;;25.90;46.13
41306;BME280;27051;50.376;19.152;2023-07-31T09:24:34;97904.09;;;25.85;45.75
41306;BME280;27051;50.376;19.152;2023-07-31T09:27:01;97907.69;;;25.97;44.74
41306;BME280;27051;50.376;19.152;2023-07-31T09:29:29;97905.55;;;26.40;44.76
41306;BME280;27051;50.376;19.152;2023-07-31T09:31:55;97903.75;;;27.02;44.36
41306;BME280;27051;50.376;19.152;2023-07-31T09:34:30;97899.35;;;27.69;43.29
41306;BME280;27051;50.376;19.152;2023-07-31T09:37:02;97905.02;;;28.51;42.36
41306;BME280;27051;50.376;19.152;2023-07-31T09:39:45;97901.50;;;28.88;42.12
41306;BME280;27051;50.376;19.152;2023-07-31T09:42:12;97900.73;;;28.74;41.90
41306;BME280;27051;50.376;19.152;2023-07-31T09:44:41;97897.65;;;28.41;41.48
41306;BME280;27051;50.376;19.152;2023-07-31T09:47:28;97898.42;;;28.00;41.45
41306;BME280;27051;50.376;19.152;2023-07-31T09:50:07;97895.02;;;27.70;41.55
41306;BME280;27051;50.376;19.152;2023-07-31T09:52:34;97893.48;;;27.60;41.71
41306;BME280;27051;50.376;19.152;2023-07-31T09:55:00;97895.50;;;27.62;41.79
41306;BME280;27051;50.376;19.152;2023-07-31T09:57:30;97897.20;;;27.69;41.41
41306;BME280;27051;50.376;19.152;2023-07-31T09:59:58;97894.55;;;27.51;40.82
41306;BME280;27051;50.376;19.152;2023-07-31T10:02:26;97894.82;;;27.23;41.09
41306;BME280;27051;50.376;19.152;2023-07-31T10:04:57;97894.58;;;27.20;40.77
41306;BME280;27051;50.376;19.152;2023-07-31T10:07:25;97895.84;;;27.64;40.78
41306;BME280;27051;50.376;19.152;2023-07-31T10:09:55;97892.52;;;28.16;40.23
41306;BME280;27051;50.376;19.152;2023-07-31T10:12:26;97891.08;;;28.16;38.46
41306;BME280;27051;50.376;19.152;2023-07-31T10:14:54;97888.95;;;27.95;39.07
41306;BME280;27051;50.376;19.152;2023-07-31T10:17:24;97880.13;;;28.01;39.51
41306;BME280;27051;50.376;19.152;2023-07-31T10:19:51;97879.83;;;28.26;39.33
41306;BME280;27051;50.376;19.152;2023-07-31T10:22:19;97878.21;;;28.20;39.09
41306;BME280;27051;50.376;19.152;2023-07-31T10:24:48;97876.33;;;28.05;38.44
41306;BME280;27051;50.376;19.152;2023-07-31T10:27:15;97880.52;;;28.14;38.69
41306;BME280;27051;50.376;19.152;2023-07-31T10:29:43;97876.09;;;27.91;37.65
41306;BME280;27051;50.376;19.152;2023-07-31T10:32:11;97873.78;;;27.50;38.17
41306;BME280;27051;50.376;19.152;2023-07-31T10:34:42;97867.71;;;27.21;38.69
41306;BME280;27051;50.376;19.152;2023-07-31T10:37:27;97866.55;;;27.02;38.74
41306;BME280;27051;50.376;19.152;2023-07-31T10:40:06;97858.20;;;26.96;39.00
41306;BME280;27051;50.376;19.152;2023-07-31T10:42:37;97859.75;;;26.95;38.64
41306;BME280;27051;50.376;19.152;2023-07-31T10:45:07;97857.38;;;26.91;38.62
41306;BME280;27051;50.376;19.152;2023-07-31T10:47:38;97863.33;;;26.94;38.61
41306;BME280;27051;50.376;19.152;2023-07-31T10:50:12;97864.39;;;27.41;38.78
41306;BME280;27051;50.376;19.152;2023-07-31T10:52:39;97855.58;;;27.81;38.31
41306;BME280;27051;50.376;19.152;2023-07-31T10:55:23;97853.02;;;28.71;37.51
41306;BME280;27051;50.376;19.152;2023-07-31T10:57:50;97845.06;;;29.68;36.37
41306;BME280;27051;50.376;19.152;2023-07-31T11:00:22;97847.38;;;29.83;36.31
41306;BME280;27051;50.376;19.152;2023-07-31T11:05:45;97838.46;;;29.70;36.03
41306;BME280;27051;50.376;19.152;2023-07-31T11:08:26;97840.88;;;29.67;35.71
41306;BME280;27051;50.376;19.152;2023-07-31T11:13:29;97841.42;;;30.10;33.88
41306;BME280;27051;50.376;19.152;2023-07-31T11:15:56;97838.24;;;29.80;34.03
41306;BME280;27051;50.376;19.152;2023-07-31T11:18:23;97830.08;;;29.54;34.30
41306;BME280;27051;50.376;19.152;2023-07-31T11:20:50;97830.87;;;30.27;34.38
41306;BME280;27051;50.376;19.152;2023-07-31T11:23:17;97828.70;;;31.28;33.48
41306;BME280;27051;50.376;19.152;2023-07-31T11:25:43;97824.20;;;31.59;32.58
41306;BME280;27051;50.376;19.152;2023-07-31T11:28:12;97827.90;;;31.25;32.45
41306;BME280;27051;50.376;19.152;2023-07-31T11:30:39;97824.48;;;30.75;32.85
41306;BME280;27051;50.376;19.152;2023-07-31T11:33:08;97821.19;;;30.41;33.10
41306;BME280;27051;50.376;19.152;2023-07-31T11:35:36;97818.34;;;30.19;33.42
41306;BME280;27051;50.376;19.152;2023-07-31T11:38:07;97820.65;;;29.90;33.41
41306;BME280;27051;50.376;19.152;2023-07-31T11:40:44;97816.71;;;29.84;33.37
41306;BME280;27051;50.376;19.152;2023-07-31T11:43:11;97816.11;;;30.04;32.97
41306;BME280;27051;50.376;19.152;2023-07-31T11:45:38;97810.08;;;30.73;32.85
41306;BME280;27051;50.376;19.152;2023-07-31T11:48:06;97813.77;;;31.66;32.19
41306;BME280;27051;50.376;19.152;2023-07-31T11:50:35;97815.95;;;32.68;30.69
41306;BME280;27051;50.376;19.152;2023-07-31T11:53:07;97811.02;;;32.74;31.15
41306;BME280;27051;50.376;19.152;2023-07-31T11:55:35;97802.67;;;33.78;30.62
41306;BME280;27051;50.376;19.152;2023-07-31T11:58:02;97802.83;;;35.10;29.52
41306;BME280;27051;50.376;19.152;2023-07-31T12:00:29;97800.93;;;36.43;28.33
41306;BME280;27051;50.376;19.152;2023-07-31T12:02:55;97792.50;;;37.46;27.52
41306;BME280;27051;50.376;19.152;2023-07-31T12:05:22;97789.85;;;37.23;27.26
41306;BME280;27051;50.376;19.152;2023-07-31T12:07:51;97784.35;;;37.83;26.65
41306;BME280;27051;50.376;19.152;2023-07-31T12:10:32;97777.42;;;38.85;26.30
41306;BME280;27051;50.376;19.152;2023-07-31T12:13:00;97773.39;;;40.09;25.05
41306;BME280;27051;50.376;19.152;2023-07-31T12:15:39;97774.22;;;40.50;24.41
41306;BME280;27051;50.376;19.152;2023-07-31T12:18:10;97769.27;;;39.53;24.67
41306;BME280;27051;50.376;19.152;2023-07-31T12:20:47;97766.70;;;38.47;24.89
41306;BME280;27051;50.376;19.152;2023-07-31T12:23:19;97764.30;;;37.24;25.02
41306;BME280;27051;50.376;19.152;2023-07-31T12:25:46;97759.39;;;36.11;25.15
41306;BME280;27051;50.376;19.152;2023-07-31T12:28:22;97754.00;;;35.05;25.29
41306;BME280;27051;50.376;19.152;2023-07-31T12:30:49;97753.35;;;34.08;25.63
41306;BME280;27051;50.376;19.152;2023-07-31T12:33:15;97750.54;;;33.31;26.10
41306;BME280;27051;50.376;19.152;2023-07-31T12:35:46;97751.27;;;32.93;26.55
41306;BME280;27051;50.376;19.152;2023-07-31T12:38:13;97753.20;;;32.56;26.58
41306;BME280;27051;50.376;19.152;2023-07-31T12:40:41;97747.39;;;32.04;26.80
41306;BME280;27051;50.376;19.152;2023-07-31T12:43:08;97745.67;;;31.61;27.11
41306;BME280;27051;50.376;19.152;2023-07-31T12:45:34;97739.42;;;31.12;27.41
41306;BME280;27051;50.376;19.152;2023-07-31T12:48:01;97741.27;;;30.75;27.64
41306;BME280;27051;50.376;19.152;2023-07-31T12:50:28;97738.98;;;30.35;28.09
41306;BME280;27051;50.376;19.152;2023-07-31T12:52:55;97738.35;;;30.15;28.55
41306;BME280;27051;50.376;19.152;2023-07-31T12:55:22;97741.73;;;30.15;28.82
41306;BME280;27051;50.376;19.152;2023-07-31T12:57:49;97737.91;;;30.18;29.04
41306;BME280;27051;50.376;19.152;2023-07-31T13:00:16;97736.79;;;30.43;29.05
41306;BME280;27051;50.376;19.152;2023-07-31T13:02:42;97736.25;;;30.44;28.82
41306;BME280;27051;50.376;19.152;2023-07-31T13:05:09;97732.29;;;30.72;28.96
41306;BME280;27051;50.376;19.152;2023-07-31T13:07:35;97729.65;;;31.88;28.97
41306;BME280;27051;50.376;19.152;2023-07-31T13:10:01;97725.55;;;33.32;28.33
41306;BME280;27051;50.376;19.152;2023-07-31T13:12:28;97725.09;;;33.14;28.05
41306;BME280;27051;50.376;19.152;2023-07-31T13:14:55;97727.20;;;32.50;28.27
41306;BME280;27051;50.376;19.152;2023-07-31T13:17:21;97725.16;;;31.87;28.39
41306;BME280;27051;50.376;19.152;2023-07-31T13:19:47;97722.71;;;31.25;28.63
41306;BME280;27051;50.376;19.152;2023-07-31T13:22:14;97721.30;;;30.79;29.01
41306;BME280;27051;50.376;19.152;2023-07-31T13:24:41;97718.54;;;30.50;29.21
41306;BME280;27051;50.376;19.152;2023-07-31T13:27:07;97716.38;;;30.30;29.13
41306;BME280;27051;50.376;19.152;2023-07-31T13:29:34;97713.79;;;30.03;29.51
41306;BME280;27051;50.376;19.152;2023-07-31T13:32:00;97712.65;;;29.92;30.01
41306;BME280;27051;50.376;19.152;2023-07-31T13:34:27;97710.98;;;29.80;29.72
41306;BME280;27051;50.376;19.152;2023-07-31T13:36:54;97710.26;;;29.81;30.05